Time;durP1;ratioP1;P1;durP2;ratioP2;P2;SDS_P1;SDS_P2;PMS_P1;PMS_P2;Temp;Humidity;BMP_temperature;BMP_pressure;BME280_temperature;BME280_humidity;BME280_pressure;Samples;Min_cycle;Max_cycle;Signal;HPM_P1;HPM_P2
2022/04/03 00:01:24;;;;;;;9.35;5.05;;;;;;;-1.72;73.51;102281.88;4982230;28;20042;-64
2022/04/03 00:03:50;;;;;;;11.27;5.25;;;;;;;-1.82;74.12;102273.06;4982182;28;20049;-65
2022/04/03 00:06:15;;;;;;;14.30;5.82;;;;;;;-1.79;73.59;102280.06;4982449;28;20542;-64
2022/04/03 00:08:41;;;;;;;11.32;6.22;;;;;;;-1.82;73.26;102273.94;4982637;28;20549;-64
2022/04/03 00:11:06;;;;;;;9.07;5.10;;;;;;;-1.83;74.99;102276.53;4982344;28;20376;-63
2022/04/03 00:13:31;;;;;;;16.45;5.72;;;;;;;-1.83;73.86;102277.41;4982218;28;20050;-63
2022/04/03 00:15:57;;;;;;;11.05;5.28;;;;;;;-1.82;74.08;102278.28;4982414;28;20739;-63
2022/04/03 00:18:23;;;;;;;8.80;4.97;;;;;;;-1.82;74.28;102273.06;4981266;28;20046;-63
2022/04/03 00:20:49;;;;;;;12.77;5.75;;;;;;;-1.84;72.87;102277.41;4982072;28;20030;-63
2022/04/03 00:23:15;;;;;;;10.98;5.80;;;;;;;-1.90;75.38;102278.22;4982326;28;20046;-63
2022/04/03 00:25:40;;;;;;;11.23;5.07;;;;;;;-1.92;74.51;102274.69;4981905;28;20043;-64
2022/04/03 00:28:06;;;;;;;14.88;6.40;;;;;;;-1.90;74.00;102272.13;4982127;28;20095;-63
2022/04/03 00:30:32;;;;;;;11.05;5.47;;;;;;;-1.85;74.43;102276.53;4981677;28;20352;-63
2022/04/03 00:32:58;;;;;;;10.02;5.55;;;;;;;-1.84;73.62;102269.56;4981764;28;20046;-63
2022/04/03 00:35:23;;;;;;;12.80;5.57;;;;;;;-1.83;73.19;102277.41;4981602;28;20057;-63
2022/04/03 00:37:49;;;;;;;10.80;6.28;;;;;;;-1.85;74.51;102280.88;4979341;28;20049;-63
2022/04/03 00:40:15;;;;;;;12.80;5.60;;;;;;;-1.93;74.21;102278.19;4980060;28;20069;-64
2022/04/03 00:42:41;;;;;;;13.95;5.32;;;;;;;-2.00;74.83;102271.13;4994819;28;20693;-66
2022/04/03 00:45:08;;;;;;;12.05;5.70;;;;;;;-2.04;74.11;102279.81;4993652;28;20054;-63
2022/04/03 00:47:33;;;;;;;17.02;5.53;;;;;;;-2.10;75.18;102279.72;4999728;28;20405;-63
2022/04/03 00:50:00;;;;;;;9.52;5.38;;;;;;;-2.14;76.26;102275.31;5001015;28;20042;-63
2022/04/03 00:52:26;;;;;;;7.95;5.00;;;;;;;-2.11;75.35;102280.56;4999055;28;20038;-63
2022/04/03 00:54:52;;;;;;;18.08;4.95;;;;;;;-2.11;75.10;102280.56;5020006;28;20046;-63
2022/04/03 00:57:20;;;;;;;10.65;5.00;;;;;;;-2.04;74.46;102274.56;5016065;28;20042;-63
2022/04/03 00:59:47;;;;;;;10.40;5.18;;;;;;;-2.04;73.92;102269.34;4990020;28;20040;-64
2022/04/03 01:02:12;;;;;;;12.02;5.10;;;;;;;-2.20;74.42;102263.06;4982586;28;20042;-63
2022/04/03 01:04:38;;;;;;;8.32;4.85;;;;;;;-2.23;75.13;102270.84;5001013;28;20045;-63
2022/04/03 01:07:05;;;;;;;10.63;6.18;;;;;;;-2.23;74.86;102269.97;5001035;28;20116;-63
2022/04/03 01:09:31;;;;;;;12.70;4.70;;;;;;;-2.27;75.83;102268.19;5001067;28;20111;-63
2022/04/03 01:11:56;;;;;;;7.18;4.50;;;;;;;-2.27;75.53;102271.66;5001356;28;20084;-64
2022/04/03 01:14:32;;;;;;;9.95;4.90;;;;;;;-2.21;74.86;102269.16;5001705;28;20395;-63
2022/04/03 01:16:58;;;;;;;13.40;4.75;;;;;;;-2.20;76.13;102270.03;4983808;28;20042;-63
2022/04/03 01:19:24;;;;;;;13.10;4.95;;;;;;;-2.20;76.04;102275.25;5001749;28;20033;-63
2022/04/03 01:21:50;;;;;;;11.18;4.00;;;;;;;-2.12;74.63;102271.84;5001966;28;20052;-64
2022/04/03 01:24:17;;;;;;;12.63;4.22;;;;;;;-2.13;74.54;102275.34;5001576;28;20042;-63
2022/04/03 01:26:43;;;;;;;13.50;5.43;;;;;;;-2.11;74.78;102272.72;5001636;28;20046;-63
2022/04/03 01:29:09;;;;;;;11.10;4.32;;;;;;;-2.36;75.38;102269.84;5003563;28;20046;-63
2022/04/03 01:31:34;;;;;;;8.23;4.20;;;;;;;-2.54;76.39;102266.97;5005354;28;20060;-64
2022/04/03 01:34:00;;;;;;;9.40;4.40;;;;;;;-2.45;75.84;102268.84;5005562;28;20133;-63
2022/04/03 01:36:25;;;;;;;6.25;3.95;;;;;;;-2.37;75.29;102265.44;5005538;28;20120;-64
2022/04/03 01:38:50;;;;;;;10.52;5.28;;;;;;;-2.36;75.83;102269.84;5005164;28;20136;-63
2022/04/03 01:41:16;;;;;;;14.10;5.03;;;;;;;-2.33;76.43;102268.13;5005004;28;20111;-65
2022/04/03 01:43:41;;;;;;;12.63;4.40;;;;;;;-2.31;76.12;102266.38;5004781;28;20124;-64
2022/04/03 01:46:06;;;;;;;10.13;4.97;;;;;;;-2.29;75.36;102269.91;5003214;28;20096;-63
2022/04/03 01:48:32;;;;;;;8.35;4.22;;;;;;;-2.33;75.92;102257.66;5005303;28;20045;-63
2022/04/03 01:50:57;;;;;;;9.32;4.07;;;;;;;-2.32;76.27;102265.50;5005187;28;20049;-65
2022/04/03 01:53:25;;;;;;;9.48;4.85;;;;;;;-2.55;76.64;102267.84;5005312;28;20042;-63
2022/04/03 01:55:58;;;;;;;13.85;5.28;;;;;;;-2.71;77.08;102264.16;5005395;28;20044;-63
2022/04/03 01:58:23;;;;;;;12.00;5.40;;;;;;;-2.72;78.05;102270.19;5005381;28;20125;-63
2022/04/03 02:00:51;;;;;;;9.90;4.63;;;;;;;-2.80;77.31;102270.97;5005568;28;21076;-63
2022/04/03 02:03:17;;;;;;;7.30;4.25;;;;;;;-2.76;78.02;102267.53;5004785;28;20140;-63
2022/04/03 02:05:43;;;;;;;9.20;4.93;;;;;;;-2.70;77.81;102263.28;4986666;28;20068;-64
2022/04/03 02:08:09;;;;;;;10.55;4.80;;;;;;;-2.77;78.22;102269.25;5004716;28;20131;-64
2022/04/03 02:10:35;;;;;;;9.70;4.88;;;;;;;-2.90;77.61;102269.94;5005327;28;20037;-63
2022/04/03 02:13:00;;;;;;;7.47;4.18;;;;;;;-3.01;78.60;102268.88;4988061;28;20410;-64
2022/04/03 02:15:26;;;;;;;9.35;4.65;;;;;;;-3.09;80.00;102275.75;5004204;28;20671;-63
2022/04/03 02:17:51;;;;;;;12.48;4.47;;;;;;;-3.10;79.70;102268.78;5005363;28;20137;-64
2022/04/03 02:20:16;;;;;;;7.60;4.60;;;;;;;-3.01;80.12;102271.50;5003409;28;20497;-63
2022/04/03 02:22:42;;;;;;;8.95;4.70;;;;;;;-2.99;79.68;102270.69;4984752;28;20066;-65
2022/04/03 02:25:11;;;;;;;10.45;4.85;;;;;;;-2.96;79.65;102275.97;4984413;28;20070;-63
2022/04/03 02:27:38;;;;;;;6.38;4.22;;;;;;;-2.93;80.14;102264.69;4985282;28;20050;-63
2022/04/03 02:30:11;;;;;;;11.85;4.90;;;;;;;-2.97;80.08;102263.75;4967615;28;20053;-63
2022/04/03 02:32:41;;;;;;;13.63;5.10;;;;;;;-2.94;80.24;102269.03;4985577;28;20042;-63
2022/04/03 02:35:09;;;;;;;11.98;5.47;;;;;;;-2.97;79.72;102266.34;4967994;28;20050;-63
2022/04/03 02:37:36;;;;;;;7.50;4.65;;;;;;;-2.95;79.70;102261.19;4968135;28;20096;-63
2022/04/03 02:40:03;;;;;;;9.75;5.05;;;;;;;-3.04;80.58;102269.72;4984390;28;20042;-63
2022/04/03 02:42:29;;;;;;;10.32;4.78;;;;;;;-3.30;79.99;102273.66;4985598;28;20079;-63
2022/04/03 02:44:54;;;;;;;11.05;4.82;;;;;;;-3.24;81.00;102265.94;4984448;28;20054;-63
2022/04/03 02:47:20;;;;;;;9.25;5.00;;;;;;;-3.36;80.32;102271.84;4984565;28;20046;-63
2022/04/03 02:49:45;;;;;;;7.55;4.00;;;;;;;-3.28;80.74;102264.13;4983986;28;20395;-62
2022/04/03 02:52:11;;;;;;;13.98;4.53;;;;;;;-3.31;79.67;102271.88;4982883;28;20057;-63
2022/04/03 02:54:37;;;;;;;9.30;4.70;;;;;;;-3.34;80.49;102279.66;4984084;28;20081;-63
2022/04/03 02:57:03;;;;;;;11.65;4.75;;;;;;;-3.46;80.79;102270.81;4984318;28;20052;-63
2022/04/03 02:59:28;;;;;;;10.10;4.72;;;;;;;-3.33;80.83;102274.47;4984313;28;20038;-63
2022/04/03 03:01:53;;;;;;;7.18;4.75;;;;;;;-3.34;80.14;102270.13;4999148;28;20673;-63
2022/04/03 03:04:19;;;;;;;9.18;4.57;;;;;;;-3.21;80.71;102264.25;4984070;28;20035;-63
2022/04/03 03:06:44;;;;;;;9.85;5.05;;;;;;;-3.26;80.17;102260.69;4984534;28;20510;-63
2022/04/03 03:09:11;;;;;;;10.23;5.10;;;;;;;-3.30;80.37;102265.84;4984673;28;20042;-63
2022/04/03 03:11:36;;;;;;;10.90;5.53;;;;;;;-3.23;81.38;102268.56;4999035;28;20056;-63
2022/04/03 03:14:02;;;;;;;10.40;5.00;;;;;;;-3.32;81.01;102260.56;4983753;28;20042;-64
2022/04/03 03:16:27;;;;;;;9.30;4.90;;;;;;;-3.26;81.08;102265.91;4984027;28;20049;-62
2022/04/03 03:18:52;;;;;;;11.05;5.97;;;;;;;-3.26;81.20;102265.03;4984381;28;20376;-62
2022/04/03 03:21:18;;;;;;;11.27;5.28;;;;;;;-3.28;81.39;102261.50;4983657;28;20047;-63
2022/04/03 03:23:43;;;;;;;10.00;5.88;;;;;;;-3.25;81.35;102262.44;4984979;28;20053;-63
2022/04/03 03:26:08;;;;;;;10.63;5.85;;;;;;;-3.24;81.67;102268.53;4982329;28;20420;-63
2022/04/03 03:28:34;;;;;;;12.77;5.40;;;;;;;-3.20;81.78;102265.13;4983580;28;20053;-63
2022/04/03 03:31:00;;;;;;;11.32;5.70;;;;;;;-3.19;81.65;102270.38;4985429;28;20046;-63
2022/04/03 03:33:25;;;;;;;11.65;5.55;;;;;;;-3.18;81.33;102260.81;5000211;28;20043;-63
2022/04/03 03:35:52;;;;;;;11.43;5.00;;;;;;;-3.24;81.38;102264.19;4984984;28;20173;-62
2022/04/03 03:38:18;;;;;;;14.90;6.45;;;;;;;-3.34;80.97;102267.50;4986584;28;20041;-63
2022/04/03 03:40:44;;;;;;;14.25;6.15;;;;;;;-3.34;81.56;102262.28;5001081;28;20046;-62
2022/04/03 03:43:10;;;;;;;21.70;6.28;;;;;;;-3.58;82.39;102261.88;5000909;28;20046;-63
2022/04/03 03:45:36;;;;;;;14.35;6.53;;;;;;;-3.40;82.31;102263.06;4987296;28;20049;-63
2022/04/03 03:48:02;;;;;;;16.42;6.72;;;;;;;-3.36;82.01;102271.84;5005116;28;20107;-63
2022/04/03 03:50:28;;;;;;;17.08;6.95;;;;;;;-3.36;81.98;102260.50;5005733;28;20050;-63
2022/04/03 03:52:53;;;;;;;15.38;5.97;;;;;;;-3.51;80.91;102266.34;4987616;28;20049;-63
2022/04/03 03:55:18;;;;;;;20.95;6.82;;;;;;;-3.64;81.39;102265.25;4987556;28;20029;-62
2022/04/03 03:57:45;;;;;;;15.52;6.20;;;;;;;-3.60;81.47;102264.47;4971019;28;20089;-63
2022/04/03 04:00:12;;;;;;;16.35;6.95;;;;;;;-3.48;81.97;102269.00;4994948;28;20089;-64
2022/04/03 04:02:40;;;;;;;19.48;8.00;;;;;;;-3.56;81.71;102270.63;4982682;28;20072;-64
2022/04/03 04:05:07;;;;;;;21.73;8.18;;;;;;;-3.47;81.85;102270.75;4966223;28;20044;-64
2022/04/03 04:07:39;;;;;;;14.75;6.35;;;;;;;-3.50;82.06;102273.31;4983576;28;20380;-63
2022/04/03 04:10:05;;;;;;;13.60;6.95;;;;;;;-3.45;82.29;102274.28;4983923;28;20044;-63
2022/04/03 04:12:31;;;;;;;13.95;7.05;;;;;;;-3.49;82.48;102270.72;4983583;28;20392;-63
2022/04/03 04:14:57;;;;;;;14.43;7.13;;;;;;;-3.44;82.63;102276.91;4965847;28;20046;-63
2022/04/03 04:17:23;;;;;;;15.95;7.28;;;;;;;-3.43;82.81;102276.03;4983742;28;20058;-65
2022/04/03 04:19:49;;;;;;;13.43;7.32;;;;;;;-3.41;82.63;102270.88;4983679;28;20038;-64
2022/04/03 04:22:16;;;;;;;12.48;6.88;;;;;;;-3.41;82.64;102271.75;4983565;28;20034;-65
2022/04/03 04:24:42;;;;;;;13.38;6.97;;;;;;;-3.44;82.59;102265.59;4965792;28;20117;-64
2022/04/03 04:27:08;;;;;;;16.75;8.40;;;;;;;-3.45;82.94;102267.34;4982736;28;20039;-64
2022/04/03 04:29:33;;;;;;;15.85;7.40;;;;;;;-3.41;82.60;102263.94;4982404;28;20530;-64
2022/04/03 04:31:59;;;;;;;16.25;7.63;;;;;;;-3.42;82.95;102262.16;4980763;28;20128;-63
2022/04/03 04:34:25;;;;;;;16.45;7.65;;;;;;;-3.38;82.22;102271.78;4980385;28;20088;-63
2022/04/03 04:36:50;;;;;;;14.18;7.18;;;;;;;-3.33;82.53;102266.66;4981386;28;20047;-63
2022/04/03 04:39:15;;;;;;;13.63;6.82;;;;;;;-3.23;82.38;102268.56;4963808;28;20054;-63
2022/04/03 04:41:41;;;;;;;18.23;7.28;;;;;;;-3.17;81.83;102273.88;4982638;28;20056;-64
2022/04/03 04:44:06;;;;;;;16.15;7.10;;;;;;;-3.13;82.16;102273.06;4970154;28;20129;-64
2022/04/03 04:46:32;;;;;;;13.52;7.05;;;;;;;-3.14;81.92;102273.94;5002046;28;20042;-64
2022/04/03 04:48:57;;;;;;;14.18;7.20;;;;;;;-3.05;81.82;102278.41;5002198;28;20046;-63
2022/04/03 04:51:22;;;;;;;17.00;7.22;;;;;;;-3.01;81.98;102282.84;5000426;28;20034;-64
2022/04/03 04:53:48;;;;;;;13.40;6.50;;;;;;;-2.94;81.64;102284.69;4983936;28;20085;-64
2022/04/03 04:56:13;;;;;;;16.98;6.53;;;;;;;-2.81;81.42;102284.84;5001658;28;20049;-63
2022/04/03 04:58:38;;;;;;;15.20;6.57;;;;;;;-2.73;81.00;102286.72;5001665;28;20056;-64
2022/04/03 05:01:04;;;;;;;18.85;7.32;;;;;;;-2.71;80.85;102290.25;4979901;28;20042;-64
2022/04/03 05:03:29;;;;;;;16.73;7.78;;;;;;;-2.66;81.51;102290.28;4983769;28;20041;-64
2022/04/03 05:05:56;;;;;;;13.15;6.30;;;;;;;-2.60;81.18;102295.63;4988295;28;20070;-63
2022/04/03 05:08:21;;;;;;;11.15;6.40;;;;;;;-2.57;81.22;102287.81;4987968;28;20046;-63
2022/04/03 05:10:49;;;;;;;16.17;7.47;;;;;;;-2.48;81.04;102281.84;4986454;28;20056;-61
2022/04/03 05:13:14;;;;;;;13.43;6.57;;;;;;;-2.40;81.27;102286.31;4969920;28;20127;-63
2022/04/03 05:15:39;;;;;;;10.48;6.28;;;;;;;-2.35;81.54;102286.38;4970154;28;20053;-64
2022/04/03 05:18:05;;;;;;;15.15;7.35;;;;;;;-2.32;81.51;102288.16;4987396;28;20400;-63
2022/04/03 05:20:30;;;;;;;17.45;6.40;;;;;;;-2.20;80.92;102286.59;4973138;28;20562;-63
2022/04/03 05:22:56;;;;;;;13.73;5.82;;;;;;;-2.04;81.14;102281.53;5007495;28;20052;-64
2022/04/03 05:25:21;;;;;;;12.68;5.72;;;;;;;-1.91;80.28;102286.94;5007329;28;20069;-64
2022/04/03 05:27:47;;;;;;;15.25;6.38;;;;;;;-1.86;79.73;102287.84;5007474;28;20608;-63
2022/04/03 05:30:13;;;;;;;11.32;6.30;;;;;;;-1.74;79.95;102286.22;5007792;28;20041;-63
2022/04/03 05:32:39;;;;;;;10.45;5.65;;;;;;;-1.72;78.96;102293.22;5007532;28;20041;-64
2022/04/03 05:35:06;;;;;;;15.55;5.72;;;;;;;-1.54;79.80;102289.06;5007488;28;20057;-64
2022/04/03 05:37:32;;;;;;;15.20;4.93;;;;;;;-1.46;79.23;102293.47;5006841;28;20042;-63
2022/04/03 05:39:57;;;;;;;14.05;5.80;;;;;;;-1.39;79.23;102290.06;4988602;28;20111;-63
2022/04/03 05:42:23;;;;;;;14.98;5.10;;;;;;;-1.22;79.26;102292.81;5006470;28;20029;-63
2022/04/03 05:44:49;;;;;;;8.07;4.28;;;;;;;-1.12;78.80;102294.66;5006167;28;20122;-64
2022/04/03 05:47:17;;;;;;;11.85;5.53;;;;;;;-1.07;79.29;102292.06;5006424;28;20038;-63
2022/04/03 05:49:44;;;;;;;10.02;4.97;;;;;;;-1.10;78.21;102292.94;4988075;28;20303;-64
2022/04/03 05:52:09;;;;;;;15.30;5.45;;;;;;;-1.09;78.76;102299.91;5004041;28;20108;-64
2022/04/03 05:54:35;;;;;;;14.40;5.78;;;;;;;-0.96;78.68;102300.00;4987953;28;20054;-63
2022/04/03 05:57:00;;;;;;;8.05;5.15;;;;;;;-0.83;78.71;102297.50;5004832;28;20046;-64
2022/04/03 05:59:26;;;;;;;11.80;5.13;;;;;;;-0.73;78.82;102301.06;5006392;28;20046;-63
2022/04/03 06:01:52;;;;;;;9.75;5.60;;;;;;;-0.77;78.22;102306.25;5004582;28;20052;-63
2022/04/03 06:04:17;;;;;;;13.52;5.03;;;;;;;-0.70;78.85;102302.81;5006077;28;20041;-64
2022/04/03 06:06:42;;;;;;;8.85;5.35;;;;;;;-0.58;78.91;102298.53;5005344;28;20034;-63
2022/04/03 06:09:08;;;;;;;10.98;5.05;;;;;;;-0.51;78.04;102299.44;4987655;28;20821;-63
2022/04/03 06:11:34;;;;;;;11.65;5.70;;;;;;;-0.46;78.50;102302.97;5004144;28;20034;-63
2022/04/03 06:14:00;;;;;;;13.70;5.35;;;;;;;-0.49;78.81;102297.72;5006500;28;20046;-64
2022/04/03 06:16:26;;;;;;;9.52;4.90;;;;;;;-0.45;78.36;102301.22;5002145;28;20064;-63
2022/04/03 06:18:53;;;;;;;7.68;4.90;;;;;;;-0.31;78.40;102302.16;4999849;28;20462;-63
2022/04/03 06:21:19;;;;;;;16.40;7.15;;;;;;;-0.33;79.03;102299.53;4986996;28;20746;-64
2022/04/03 06:23:44;;;;;;;19.45;8.02;;;;;;;-0.21;79.39;102301.34;4985748;28;20109;-65
2022/04/03 06:26:10;;;;;;;14.23;6.32;;;;;;;-0.24;78.85;102303.09;5003674;28;20149;-64
2022/04/03 06:28:35;;;;;;;8.50;5.00;;;;;;;-0.24;78.92;102298.72;5009077;28;20038;-63
2022/04/03 06:31:01;;;;;;;9.57;5.03;;;;;;;-0.06;78.47;102298.78;5013663;28;20728;-63
2022/04/03 06:33:27;;;;;;;10.48;5.70;;;;;;;-0.04;78.30;102306.69;5016077;28;20045;-63
2022/04/03 06:35:52;;;;;;;18.52;6.35;;;;;;;-0.05;78.82;102305.81;5021558;28;20459;-63
2022/04/03 06:38:18;;;;;;;19.15;5.43;;;;;;;0.01;78.08;102311.94;4982491;28;20070;-63
2022/04/03 06:40:52;;;;;;;9.60;5.10;;;;;;;0.19;78.13;102302.38;4991077;28;20042;-63
2022/04/03 06:43:26;;;;;;;10.27;5.13;;;;;;;0.04;78.43;102304.06;5002353;28;20042;-63
2022/04/03 06:45:53;;;;;;;17.73;5.68;;;;;;;0.12;78.14;102311.09;5002920;28;20046;-63
2022/04/03 06:48:19;;;;;;;15.88;5.95;;;;;;;0.65;77.92;102302.50;4988862;28;20091;-64
2022/04/03 06:50:45;;;;;;;9.48;5.20;;;;;;;1.20;76.22;102304.22;4997525;28;20511;-63
2022/04/03 06:53:10;;;;;;;8.52;5.55;;;;;;;1.38;73.38;102308.56;5013234;28;20052;-63
2022/04/03 06:55:35;;;;;;;10.07;5.47;;;;;;;1.80;72.17;102303.19;5008227;28;20046;-66
2022/04/03 06:58:02;;;;;;;14.00;5.95;;;;;;;2.27;70.56;102298.63;5002555;28;20065;-63
2022/04/03 07:00:27;;;;;;;11.32;5.60;;;;;;;2.74;69.70;102297.41;4988975;28;20574;-63
2022/04/03 07:02:53;;;;;;;10.45;5.60;;;;;;;3.25;66.53;102301.38;5013768;28;20038;-63
2022/04/03 07:05:19;;;;;;;7.63;4.82;;;;;;;3.08;65.89;102300.66;5013314;28;20064;-63
2022/04/03 07:07:44;;;;;;;12.40;5.75;;;;;;;3.27;64.94;102304.00;4988212;28;20131;-63
2022/04/03 07:10:10;;;;;;;9.50;4.75;;;;;;;3.30;64.96;102302.19;5018276;28;20053;-63
2022/04/03 07:12:37;;;;;;;14.70;5.13;;;;;;;3.69;63.83;102302.69;5006432;28;20425;-63
2022/04/03 07:15:03;;;;;;;8.38;4.85;;;;;;;3.75;63.10;102304.38;5012021;28;20087;-63
2022/04/03 07:17:29;;;;;;;9.63;4.63;;;;;;;3.89;62.68;102303.31;5001768;28;20049;-63
2022/04/03 07:19:55;;;;;;;6.95;3.88;;;;;;;3.99;62.64;102308.47;5005206;28;20049;-63
2022/04/03 07:22:20;;;;;;;8.88;3.95;;;;;;;4.81;61.20;102309.06;4985469;28;20064;-63
2022/04/03 07:24:45;;;;;;;6.32;3.75;;;;;;;4.97;61.35;102307.06;5014437;28;20897;-62
2022/04/03 07:27:11;;;;;;;10.32;3.60;;;;;;;5.23;59.66;102302.22;4984286;28;20038;-62
2022/04/03 07:29:36;;;;;;;9.23;3.80;;;;;;;5.19;59.52;102301.38;5008935;28;20046;-63
2022/04/03 07:32:03;;;;;;;8.32;4.00;;;;;;;5.94;58.33;102294.69;4983716;28;20042;-62
2022/04/03 07:34:28;;;;;;;6.35;3.15;;;;;;;5.68;58.66;102302.25;5006345;28;20037;-64
2022/04/03 07:36:54;;;;;;;5.32;2.50;;;;;;;5.38;59.29;102312.50;5012824;28;20050;-63
2022/04/03 07:39:20;;;;;;;7.32;3.10;;;;;;;5.71;57.33;102302.19;4995511;28;20561;-63
2022/04/03 07:41:46;;;;;;;3.78;2.70;;;;;;;5.14;59.83;102305.88;5005597;28;20811;-63
2022/04/03 07:44:12;;;;;;;7.18;2.78;;;;;;;5.44;58.85;102311.53;5000157;28;20049;-62
2022/04/03 07:46:38;;;;;;;5.53;2.78;;;;;;;5.32;57.58;102304.69;5001570;28;20826;-63
2022/04/03 07:49:04;;;;;;;4.18;2.17;;;;;;;5.20;59.62;102308.41;4999938;28;20072;-63
2022/04/03 07:51:30;;;;;;;7.00;3.08;;;;;;;4.79;59.32;102310.88;5001126;28;20045;-63
2022/04/03 07:53:55;;;;;;;5.47;2.97;;;;;;;5.45;59.88;102303.56;4995960;28;20451;-63
2022/04/03 07:56:21;;;;;;;5.57;2.80;;;;;;;5.43;58.28;102294.78;4997655;28;20597;-63
2022/04/03 07:58:47;;;;;;;4.78;2.50;;;;;;;5.19;59.10;102311.97;4983720;28;20039;-63
2022/04/03 08:01:12;;;;;;;7.60;2.75;;;;;;;4.94;59.83;102316.78;4998670;28;20038;-63
2022/04/03 08:03:38;;;;;;;6.80;2.53;;;;;;;5.32;59.50;102310.00;4999581;28;20116;-63
2022/04/03 08:06:05;;;;;;;4.07;2.90;;;;;;;5.22;60.02;102318.09;5003907;28;20041;-63
2022/04/03 08:08:30;;;;;;;4.97;3.10;;;;;;;5.64;58.90;102306.72;5003254;28;20413;-64
2022/04/03 08:10:56;;;;;;;6.75;3.30;;;;;;;5.19;60.41;102322.53;4996952;28;20038;-62
2022/04/03 08:13:22;;;;;;;4.65;2.78;;;;;;;5.75;59.44;102313.59;4998014;28;20577;-63
2022/04/03 08:15:48;;;;;;;5.90;3.08;;;;;;;6.11;59.95;102306.69;4999741;28;20108;-62
2022/04/03 08:18:13;;;;;;;3.70;2.53;;;;;;;6.40;57.55;102314.88;4999752;28;20048;-62
2022/04/03 08:20:39;;;;;;;6.03;2.83;;;;;;;7.15;55.68;102310.44;4990591;28;20041;-63
2022/04/03 08:23:05;;;;;;;7.22;3.17;;;;;;;6.89;54.75;102308.44;4998555;28;20156;-63
2022/04/03 08:25:33;;;;;;;6.35;2.88;;;;;;;7.34;54.28;102312.63;5012912;28;20057;-63
2022/04/03 08:28:00;;;;;;;3.67;2.50;;;;;;;7.55;54.73;102304.09;5002965;28;20156;-64
2022/04/03 08:30:31;;;;;;;7.38;2.85;;;;;;;7.07;54.71;102316.84;5014866;28;20084;-63
2022/04/03 08:32:57;;;;;;;4.82;2.58;;;;;;;6.70;54.88;102312.44;4999180;28;20132;-62
2022/04/03 08:35:24;;;;;;;7.95;2.80;;;;;;;7.00;54.92;102317.00;4990991;28;20044;-62
2022/04/03 08:37:50;;;;;;;3.95;2.60;;;;;;;7.08;55.76;102311.53;4998288;28;20025;-62
2022/04/03 08:40:17;;;;;;;3.90;2.67;;;;;;;6.80;55.55;102316.63;5004437;28;20057;-63
2022/04/03 08:42:43;;;;;;;4.60;2.60;;;;;;;7.39;54.27;102316.03;5004481;28;20144;-63
2022/04/03 08:45:11;;;;;;;6.47;2.95;;;;;;;7.59;57.17;102312.84;4997479;28;20084;-63
2022/04/03 08:47:52;;;;;;;5.00;3.13;;;;;;;7.74;53.54;102310.63;4996976;28;20046;-63
2022/04/03 08:50:19;;;;;;;6.07;2.67;;;;;;;7.45;54.29;102313.22;5006120;28;20501;-62
2022/04/03 08:52:47;;;;;;;6.93;2.78;;;;;;;7.03;55.04;102313.41;4995530;28;20826;-63
2022/04/03 08:55:14;;;;;;;6.93;2.70;;;;;;;7.23;54.75;102303.19;5015418;28;20539;-63
2022/04/03 08:57:40;;;;;;;7.38;2.40;;;;;;;7.81;55.06;102306.03;5004361;28;20141;-62
2022/04/03 09:00:07;;;;;;;6.18;2.75;;;;;;;7.95;53.91;102305.63;5005711;28;20743;-63
2022/04/03 09:02:33;;;;;;;5.05;2.97;;;;;;;7.42;53.78;102305.31;4964321;28;20876;-63
2022/04/03 09:04:59;;;;;;;5.85;3.38;;;;;;;8.54;53.23;102303.00;5004600;28;20050;-63
2022/04/03 09:07:25;;;;;;;3.67;2.85;;;;;;;8.03;53.32;102292.97;5003267;28;20490;-64
2022/04/03 09:09:59;;;;;;;4.43;2.65;;;;;;;8.10;52.14;102291.03;5008053;28;20041;-63
2022/04/03 09:12:24;;;;;;;4.18;3.00;;;;;;;8.36;52.28;102290.25;5005314;28;20798;-63
2022/04/03 09:14:55;;;;;;;6.82;2.60;;;;;;;8.48;52.18;102292.53;5015091;28;20045;-63
2022/04/03 09:17:44;;;;;;;6.70;2.60;;;;;;;8.65;51.28;102286.69;5005173;28;20045;-63
2022/04/03 09:20:14;;;;;;;2.90;2.20;;;;;;;8.66;50.17;102289.31;5001377;28;20512;-63
2022/04/03 09:22:45;;;;;;;5.45;1.80;;;;;;;8.36;51.11;102277.84;4996003;28;20038;-63
2022/04/03 09:25:13;;;;;;;4.90;1.95;;;;;;;7.85;51.54;102280.25;5005507;28;20033;-63
2022/04/03 09:27:53;;;;;;;3.35;2.08;;;;;;;7.44;52.57;102287.59;5006204;28;20045;-63
2022/04/03 09:30:21;;;;;;;4.38;2.20;;;;;;;7.70;52.54;102278.91;5001423;28;20041;-63
2022/04/03 09:32:57;;;;;;;5.13;1.65;;;;;;;7.45;51.31;102278.72;5014562;28;20041;-65
2022/04/03 09:35:29;;;;;;;4.07;1.33;;;;;;;7.91;51.51;102278.28;4980136;28;20117;-63
2022/04/03 09:38:08;;;;;;;2.83;1.45;;;;;;;7.55;49.65;102276.69;5012562;28;20056;-63
2022/04/03 09:40:35;;;;;;;3.38;1.40;;;;;;;7.70;51.53;102273.59;5013393;28;20641;-63
2022/04/03 09:43:25;;;;;;;4.78;1.20;;;;;;;8.23;47.80;102271.13;5000590;28;20402;-63
2022/04/03 09:45:57;;;;;;;0.98;0.82;;;;;;;8.68;47.56;102274.16;5013261;28;20057;-63
2022/04/03 09:48:36;;;;;;;2.67;1.15;;;;;;;8.84;44.45;102263.91;4985483;28;20041;-63
2022/04/03 09:51:02;;;;;;;3.47;1.15;;;;;;;8.88;45.66;102265.53;5006999;28;20080;-63
2022/04/03 09:53:29;;;;;;;2.15;0.80;;;;;;;8.79;44.23;102264.06;5007566;28;20156;-63
2022/04/03 09:55:55;;;;;;;2.20;1.13;;;;;;;8.23;45.93;102256.09;5007600;28;20454;-63
2022/04/03 09:58:20;;;;;;;2.90;1.35;;;;;;;8.04;48.12;102263.72;4986751;28;20041;-63
2022/04/03 10:00:46;;;;;;;5.32;1.48;;;;;;;7.74;49.05;102259.31;5010542;28;20498;-63
2022/04/03 10:03:13;;;;;;;5.30;1.25;;;;;;;7.10;49.44;102261.06;5008877;28;20065;-63
2022/04/03 10:05:39;;;;;;;2.42;1.17;;;;;;;6.99;48.55;102256.94;4992492;28;20053;-63
2022/04/03 10:08:06;;;;;;;1.20;1.10;;;;;;;6.88;48.63;102255.47;5011517;28;20050;-65
2022/04/03 10:10:34;;;;;;;2.83;0.90;;;;;;;6.97;48.91;102260.50;5011414;28;20048;-62
2022/04/03 10:13:01;;;;;;;2.80;1.02;;;;;;;7.59;48.78;102255.31;5008439;28;20071;-63
2022/04/03 10:15:27;;;;;;;1.63;1.20;;;;;;;7.79;49.50;102252.09;4989968;28;20507;-63
2022/04/03 10:17:54;;;;;;;1.50;1.30;;;;;;;7.21;48.60;102254.56;5014745;28;20494;-63
2022/04/03 10:20:24;;;;;;;3.78;1.92;;;;;;;7.09;49.71;102254.03;5011073;28;20045;-63
2022/04/03 10:22:54;;;;;;;3.20;1.85;;;;;;;7.12;50.46;102251.28;5002241;28;20042;-63
2022/04/03 10:25:29;;;;;;;4.53;1.70;;;;;;;7.21;50.57;102253.69;5001519;28;20126;-62
2022/04/03 10:27:57;;;;;;;4.80;1.83;;;;;;;7.57;50.86;102246.50;5008042;28;20046;-62
2022/04/03 10:30:35;;;;;;;2.40;1.63;;;;;;;7.72;50.08;102240.75;5016804;28;20037;-62
2022/04/03 10:33:01;;;;;;;3.45;1.45;;;;;;;7.92;49.58;102245.47;5003957;28;20055;-62
2022/04/03 10:35:26;;;;;;;5.80;1.92;;;;;;;8.17;47.10;102236.78;4995415;28;20037;-62
2022/04/03 10:38:05;;;;;;;2.78;1.10;;;;;;;8.44;46.71;102243.06;5013753;28;20041;-62
2022/04/03 10:40:34;;;;;;;4.35;1.75;;;;;;;8.89;46.47;102235.38;5021219;28;20087;-64
2022/04/03 10:43:03;;;;;;;6.75;1.88;;;;;;;8.85;47.73;102233.72;5002873;28;20041;-65
2022/04/03 10:45:32;;;;;;;2.78;1.60;;;;;;;9.18;43.61;102229.00;4996443;28;20478;-62
2022/04/03 10:48:19;;;;;;;1.60;1.20;;;;;;;8.70;45.93;102228.91;5004761;28;20044;-63
2022/04/03 10:51:00;;;;;;;3.35;1.40;;;;;;;8.28;47.18;102227.56;5004620;28;20061;-62
2022/04/03 10:53:31;;;;;;;2.08;1.40;;;;;;;8.21;47.73;102231.31;5021180;28;20044;-62
2022/04/03 10:56:07;;;;;;;4.72;1.58;;;;;;;7.74;49.37;102233.63;5011072;28;20053;-62
2022/04/03 10:58:44;;;;;;;7.32;2.70;;;;;;;7.40;50.47;102232.84;5010057;28;20498;-62
2022/04/03 11:01:22;;;;;;;5.18;2.60;;;;;;;7.29;50.29;102235.81;4998997;28;20038;-62
2022/04/03 11:03:59;;;;;;;2.95;1.80;;;;;;;7.63;50.61;102225.13;5008060;28;20139;-62
2022/04/03 11:06:32;;;;;;;5.35;2.00;;;;;;;7.72;50.83;102230.13;5001355;28;20084;-63
2022/04/03 11:09:03;;;;;;;3.08;1.85;;;;;;;7.80;50.76;102227.28;5008439;28;20053;-63
2022/04/03 11:11:48;;;;;;;3.75;2.08;;;;;;;8.01;51.38;102226.63;5014069;28;20795;-63
2022/04/03 11:14:52;;;;;;;1.65;1.52;;;;;;;8.04;50.40;102226.53;5011531;28;20033;-61
2022/04/03 11:17:19;;;;;;;1.95;1.70;;;;;;;8.03;52.72;102229.22;4998352;28;20074;-62
2022/04/03 11:19:46;;;;;;;2.90;1.90;;;;;;;7.69;53.50;102230.25;5008006;28;20084;-62
2022/04/03 11:22:17;;;;;;;6.32;1.60;;;;;;;7.78;51.27;102229.09;5006025;28;20449;-65
2022/04/03 11:24:43;;;;;;;2.15;1.27;;;;;;;7.61;48.54;102221.63;5001623;28;20120;-63